Aérodrome :
LOGIN :

S'inscrire | Disclaimer

   EN    FR    IT 

 










Légende :    VFR   VFR Marginal   IFR   IFR Intensif   IFR Très Intensif
Visi : 
Plafond : 
>= 8 km
>= 3000ft
5 à 8 km
1000 à 3000 ft
1500m à 5 km
500 à 1000 ft
800 à 1500m
200 à 500 ft
< 800m
< 200 ft
Symboles :   Orages  Brouillard  Fortes neiges  Fortes précipitations  Vent > 20 kt
SIGMETs :   Divers  Orages  Givrage  Turbulence  Onde Orograph.  Cendres Volcan.






- Altitude de l'aérodrome : 319 ft


EIME - Casement Air Base

DERNIER METAR :
  • 151430Z 08008KT 030V110 9999 FEW023 BKN078 BKN200 17/12 Q1007

METARs EXPIRÉS :
  • 151400Z 08008KT 030V110 9999 FEW023 SCT078 BKN140 17/11 Q1007
  • 151330Z 09007KT 050V130 9999 FEW021 SCT090 BKN140 17/12 Q1007
  • 151300Z 08007KT 040V110 9999 FEW030 BKN200 16/12 Q1007
  • 151230Z 07006KT 030V110 9999 FEW032 BKN090 BKN200 16/11 Q1007
  • 151200Z 09007KT 9999 FEW032 BKN140 16/12 Q1008
  • 151130Z 08007KT 030V100 9999 FEW030 BKN090 16/12 Q1008
  • 151100Z 09007KT 9999 FEW023 SCT100 BKN200 16/12 Q1007
  • 151030Z 10006KT 060V120 9999 FEW023 SCT080 BKN200 16/11 Q1007
  • 151000Z 13008KT 090V150 9999 FEW022 BKN042 BKN200 16/13 Q1008

TAF TAF EIME
Valide du 15 à 15h jusqu'au 16 à 00h UTC


151400Z 1515/1524 07007KT 9999 FEW014 SCT025
PROB30
TEMPO 1515/1524 4000 -RA BKN014



MET'MAP, la Météo Aéronautique d'un coup d'oeil ! - Copyright ORBIFLY Décembre 2007 - Disclaimer

ORBIFLY MET'MAP TEAM :

Programmation & Développement : Alexandra Zaïnal
Sur une idée originale de : Baudouin d'Aumeries
Soutien technique & logistique : Manuel Goepfert
Assistance : Marc-Olivier Méhu




SOURCES & CREDITS :

   NOAA